sensor_id;sensor_type;location;lat;lon;timestamp;P1;durP1;ratioP1;P2;durP2;ratioP2
6306;SDS011;3186;54.062;9.962;2024-02-26T00:02:24;14.33;;;12.03;;
6306;SDS011;3186;54.062;9.962;2024-02-26T00:04:50;16.40;;;11.60;;
6306;SDS011;3186;54.062;9.962;2024-02-26T00:07:16;18.20;;;13.20;;
6306;SDS011;3186;54.062;9.962;2024-02-26T00:09:41;16.87;;;12.87;;
6306;SDS011;3186;54.062;9.962;2024-02-26T00:12:07;19.93;;;12.53;;
6306;SDS011;3186;54.062;9.962;2024-02-26T00:14:33;15.10;;;12.37;;
6306;SDS011;3186;54.062;9.962;2024-02-26T00:16:59;14.67;;;12.37;;
6306;SDS011;3186;54.062;9.962;2024-02-26T00:19:25;19.40;;;13.50;;
6306;SDS011;3186;54.062;9.962;2024-02-26T00:21:51;18.47;;;13.30;;
6306;SDS011;3186;54.062;9.962;2024-02-26T00:24:18;16.83;;;12.53;;
6306;SDS011;3186;54.062;9.962;2024-02-26T00:26:44;16.03;;;12.77;;
6306;SDS011;3186;54.062;9.962;2024-02-26T00:29:10;18.87;;;12.93;;
6306;SDS011;3186;54.062;9.962;2024-02-26T00:31:36;18.43;;;13.13;;
6306;SDS011;3186;54.062;9.962;2024-02-26T00:34:03;16.47;;;12.53;;
6306;SDS011;3186;54.062;9.962;2024-02-26T00:36:28;17.97;;;13.17;;
6306;SDS011;3186;54.062;9.962;2024-02-26T00:38:54;13.27;;;11.67;;
6306;SDS011;3186;54.062;9.962;2024-02-26T00:41:20;14.60;;;12.77;;
6306;SDS011;3186;54.062;9.962;2024-02-26T00:43:46;14.60;;;13.03;;
6306;SDS011;3186;54.062;9.962;2024-02-26T00:46:12;16.20;;;13.57;;
6306;SDS011;3186;54.062;9.962;2024-02-26T00:48:38;17.83;;;13.70;;
6306;SDS011;3186;54.062;9.962;2024-02-26T00:51:04;16.60;;;13.13;;
6306;SDS011;3186;54.062;9.962;2024-02-26T00:53:30;18.40;;;12.40;;
6306;SDS011;3186;54.062;9.962;2024-02-26T00:55:56;18.80;;;12.77;;
6306;SDS011;3186;54.062;9.962;2024-02-26T00:58:24;21.00;;;14.03;;
6306;SDS011;3186;54.062;9.962;2024-02-26T01:00:50;16.33;;;12.87;;
6306;SDS011;3186;54.062;9.962;2024-02-26T01:03:16;17.83;;;13.07;;
6306;SDS011;3186;54.062;9.962;2024-02-26T01:05:42;16.63;;;12.73;;
6306;SDS011;3186;54.062;9.962;2024-02-26T01:08:08;18.07;;;12.50;;
6306;SDS011;3186;54.062;9.962;2024-02-26T01:10:33;17.17;;;12.80;;
6306;SDS011;3186;54.062;9.962;2024-02-26T01:12:59;18.33;;;14.07;;
6306;SDS011;3186;54.062;9.962;2024-02-26T01:15:26;19.70;;;13.43;;
6306;SDS011;3186;54.062;9.962;2024-02-26T01:17:52;15.73;;;13.23;;
6306;SDS011;3186;54.062;9.962;2024-02-26T01:20:17;17.40;;;13.50;;
6306;SDS011;3186;54.062;9.962;2024-02-26T01:22:44;22.80;;;12.97;;
6306;SDS011;3186;54.062;9.962;2024-02-26T01:25:09;16.37;;;12.87;;
6306;SDS011;3186;54.062;9.962;2024-02-26T01:27:38;17.63;;;13.00;;
6306;SDS011;3186;54.062;9.962;2024-02-26T01:30:06;17.07;;;13.53;;
6306;SDS011;3186;54.062;9.962;2024-02-26T01:32:32;16.83;;;13.13;;
6306;SDS011;3186;54.062;9.962;2024-02-26T01:34:58;17.00;;;12.80;;
6306;SDS011;3186;54.062;9.962;2024-02-26T01:37:23;17.50;;;13.10;;
6306;SDS011;3186;54.062;9.962;2024-02-26T01:39:49;15.07;;;12.20;;
6306;SDS011;3186;54.062;9.962;2024-02-26T01:42:14;18.40;;;12.67;;
6306;SDS011;3186;54.062;9.962;2024-02-26T01:44:40;19.20;;;14.33;;
6306;SDS011;3186;54.062;9.962;2024-02-26T01:47:07;18.33;;;13.00;;
6306;SDS011;3186;54.062;9.962;2024-02-26T01:49:36;21.73;;;13.40;;
6306;SDS011;3186;54.062;9.962;2024-02-26T01:52:03;20.40;;;14.77;;
6306;SDS011;3186;54.062;9.962;2024-02-26T01:54:31;20.83;;;14.43;;
6306;SDS011;3186;54.062;9.962;2024-02-26T01:56:58;22.57;;;16.00;;
6306;SDS011;3186;54.062;9.962;2024-02-26T01:59:24;20.67;;;15.40;;
6306;SDS011;3186;54.062;9.962;2024-02-26T02:01:52;21.60;;;15.97;;
6306;SDS011;3186;54.062;9.962;2024-02-26T02:04:22;22.03;;;16.80;;
6306;SDS011;3186;54.062;9.962;2024-02-26T02:06:49;20.10;;;16.37;;
6306;SDS011;3186;54.062;9.962;2024-02-26T02:09:17;23.97;;;16.27;;
6306;SDS011;3186;54.062;9.962;2024-02-26T02:11:43;21.17;;;15.20;;
6306;SDS011;3186;54.062;9.962;2024-02-26T02:14:09;22.20;;;15.40;;
6306;SDS011;3186;54.062;9.962;2024-02-26T02:16:35;21.73;;;15.93;;
6306;SDS011;3186;54.062;9.962;2024-02-26T02:19:01;21.37;;;16.37;;
6306;SDS011;3186;54.062;9.962;2024-02-26T02:21:26;20.47;;;15.70;;
6306;SDS011;3186;54.062;9.962;2024-02-26T02:23:52;19.80;;;15.27;;
6306;SDS011;3186;54.062;9.962;2024-02-26T02:26:17;18.93;;;15.53;;
6306;SDS011;3186;54.062;9.962;2024-02-26T02:28:44;22.03;;;15.27;;
6306;SDS011;3186;54.062;9.962;2024-02-26T02:31:11;20.70;;;15.23;;
6306;SDS011;3186;54.062;9.962;2024-02-26T02:33:37;20.73;;;15.07;;
6306;SDS011;3186;54.062;9.962;2024-02-26T02:36:03;22.00;;;16.00;;
6306;SDS011;3186;54.062;9.962;2024-02-26T02:38:29;20.70;;;15.77;;
6306;SDS011;3186;54.062;9.962;2024-02-26T02:40:55;22.77;;;15.40;;
6306;SDS011;3186;54.062;9.962;2024-02-26T02:43:21;20.53;;;15.43;;
6306;SDS011;3186;54.062;9.962;2024-02-26T02:45:47;24.33;;;16.47;;
6306;SDS011;3186;54.062;9.962;2024-02-26T02:48:12;21.97;;;15.20;;
6306;SDS011;3186;54.062;9.962;2024-02-26T02:50:38;19.53;;;15.10;;
6306;SDS011;3186;54.062;9.962;2024-02-26T02:53:04;20.27;;;15.30;;
6306;SDS011;3186;54.062;9.962;2024-02-26T02:55:29;21.30;;;15.53;;
6306;SDS011;3186;54.062;9.962;2024-02-26T02:57:55;26.47;;;16.57;;
6306;SDS011;3186;54.062;9.962;2024-02-26T03:00:21;23.63;;;16.83;;
6306;SDS011;3186;54.062;9.962;2024-02-26T03:02:48;27.80;;;17.23;;
6306;SDS011;3186;54.062;9.962;2024-02-26T03:05:14;21.23;;;15.23;;
6306;SDS011;3186;54.062;9.962;2024-02-26T03:07:40;18.93;;;15.43;;
6306;SDS011;3186;54.062;9.962;2024-02-26T03:10:06;20.60;;;16.27;;
6306;SDS011;3186;54.062;9.962;2024-02-26T03:12:33;21.33;;;15.33;;
6306;SDS011;3186;54.062;9.962;2024-02-26T03:14:59;19.80;;;15.23;;
6306;SDS011;3186;54.062;9.962;2024-02-26T03:17:28;19.93;;;14.47;;
6306;SDS011;3186;54.062;9.962;2024-02-26T03:19:54;21.23;;;15.13;;
6306;SDS011;3186;54.062;9.962;2024-02-26T03:22:20;18.77;;;14.77;;
6306;SDS011;3186;54.062;9.962;2024-02-26T03:24:45;19.97;;;14.07;;
6306;SDS011;3186;54.062;9.962;2024-02-26T03:27:12;20.43;;;14.87;;
6306;SDS011;3186;54.062;9.962;2024-02-26T03:29:37;21.17;;;15.00;;
6306;SDS011;3186;54.062;9.962;2024-02-26T03:32:03;18.53;;;14.53;;
6306;SDS011;3186;54.062;9.962;2024-02-26T03:34:30;20.03;;;14.57;;
6306;SDS011;3186;54.062;9.962;2024-02-26T03:36:57;17.67;;;14.60;;
6306;SDS011;3186;54.062;9.962;2024-02-26T03:39:22;20.07;;;14.27;;
6306;SDS011;3186;54.062;9.962;2024-02-26T03:41:48;20.50;;;14.37;;
6306;SDS011;3186;54.062;9.962;2024-02-26T03:44:14;21.27;;;15.03;;
6306;SDS011;3186;54.062;9.962;2024-02-26T03:46:40;19.63;;;13.97;;
6306;SDS011;3186;54.062;9.962;2024-02-26T03:49:07;17.10;;;13.00;;
6306;SDS011;3186;54.062;9.962;2024-02-26T03:51:33;18.17;;;13.30;;
6306;SDS011;3186;54.062;9.962;2024-02-26T03:53:59;15.97;;;12.73;;
6306;SDS011;3186;54.062;9.962;2024-02-26T03:56:25;17.07;;;13.30;;
6306;SDS011;3186;54.062;9.962;2024-02-26T03:58:52;13.57;;;11.43;;
6306;SDS011;3186;54.062;9.962;2024-02-26T04:01:17;17.30;;;13.10;;
6306;SDS011;3186;54.062;9.962;2024-02-26T04:03:43;16.70;;;12.43;;
6306;SDS011;3186;54.062;9.962;2024-02-26T04:06:09;17.27;;;12.23;;
6306;SDS011;3186;54.062;9.962;2024-02-26T04:08:39;15.57;;;12.03;;
6306;SDS011;3186;54.062;9.962;2024-02-26T04:11:06;14.93;;;12.60;;
6306;SDS011;3186;54.062;9.962;2024-02-26T04:13:35;15.27;;;12.17;;
6306;SDS011;3186;54.062;9.962;2024-02-26T04:16:04;16.07;;;12.30;;
6306;SDS011;3186;54.062;9.962;2024-02-26T04:18:30;16.60;;;12.57;;
6306;SDS011;3186;54.062;9.962;2024-02-26T04:20:57;15.17;;;11.60;;
6306;SDS011;3186;54.062;9.962;2024-02-26T04:23:22;13.93;;;11.27;;
6306;SDS011;3186;54.062;9.962;2024-02-26T04:25:48;14.60;;;11.87;;
6306;SDS011;3186;54.062;9.962;2024-02-26T04:28:14;17.07;;;12.30;;
6306;SDS011;3186;54.062;9.962;2024-02-26T04:30:39;13.03;;;11.60;;
6306;SDS011;3186;54.062;9.962;2024-02-26T04:33:05;14.03;;;12.23;;
6306;SDS011;3186;54.062;9.962;2024-02-26T04:35:31;15.23;;;12.30;;
6306;SDS011;3186;54.062;9.962;2024-02-26T04:37:57;14.63;;;11.57;;
6306;SDS011;3186;54.062;9.962;2024-02-26T04:40:23;16.57;;;12.40;;
6306;SDS011;3186;54.062;9.962;2024-02-26T04:42:49;14.20;;;11.73;;
6306;SDS011;3186;54.062;9.962;2024-02-26T04:45:15;14.50;;;11.77;;
6306;SDS011;3186;54.062;9.962;2024-02-26T04:47:40;13.43;;;12.00;;
6306;SDS011;3186;54.062;9.962;2024-02-26T04:50:06;15.47;;;11.93;;
6306;SDS011;3186;54.062;9.962;2024-02-26T04:52:32;17.53;;;12.70;;
6306;SDS011;3186;54.062;9.962;2024-02-26T04:54:58;15.30;;;11.53;;
6306;SDS011;3186;54.062;9.962;2024-02-26T04:57:25;15.23;;;12.23;;
6306;SDS011;3186;54.062;9.962;2024-02-26T04:59:51;15.40;;;11.90;;
6306;SDS011;3186;54.062;9.962;2024-02-26T05:02:17;14.53;;;12.23;;
6306;SDS011;3186;54.062;9.962;2024-02-26T05:04:42;13.23;;;11.47;;
6306;SDS011;3186;54.062;9.962;2024-02-26T05:07:08;16.63;;;12.17;;
6306;SDS011;3186;54.062;9.962;2024-02-26T05:09:34;13.67;;;11.17;;
6306;SDS011;3186;54.062;9.962;2024-02-26T05:12:00;16.53;;;12.37;;
6306;SDS011;3186;54.062;9.962;2024-02-26T05:14:26;14.43;;;11.50;;
6306;SDS011;3186;54.062;9.962;2024-02-26T05:16:51;15.57;;;12.30;;
6306;SDS011;3186;54.062;9.962;2024-02-26T05:19:17;14.73;;;11.73;;
6306;SDS011;3186;54.062;9.962;2024-02-26T05:21:42;14.57;;;11.73;;
6306;SDS011;3186;54.062;9.962;2024-02-26T05:24:09;15.50;;;12.20;;
6306;SDS011;3186;54.062;9.962;2024-02-26T05:26:35;14.77;;;12.30;;
6306;SDS011;3186;54.062;9.962;2024-02-26T05:29:01;14.70;;;11.83;;
6306;SDS011;3186;54.062;9.962;2024-02-26T05:31:27;15.10;;;12.00;;
6306;SDS011;3186;54.062;9.962;2024-02-26T05:33:53;18.87;;;13.53;;
6306;SDS011;3186;54.062;9.962;2024-02-26T05:36:23;14.90;;;11.83;;
6306;SDS011;3186;54.062;9.962;2024-02-26T05:38:50;13.77;;;11.17;;
6306;SDS011;3186;54.062;9.962;2024-02-26T05:41:16;14.73;;;11.70;;
6306;SDS011;3186;54.062;9.962;2024-02-26T05:43:42;17.77;;;12.77;;
6306;SDS011;3186;54.062;9.962;2024-02-26T05:46:08;15.37;;;11.77;;
6306;SDS011;3186;54.062;9.962;2024-02-26T05:48:33;12.93;;;11.53;;
6306;SDS011;3186;54.062;9.962;2024-02-26T05:50:59;14.10;;;11.87;;
6306;SDS011;3186;54.062;9.962;2024-02-26T05:53:24;17.30;;;12.40;;
6306;SDS011;3186;54.062;9.962;2024-02-26T05:55:50;18.30;;;12.07;;
6306;SDS011;3186;54.062;9.962;2024-02-26T05:58:16;15.10;;;12.50;;
6306;SDS011;3186;54.062;9.962;2024-02-26T06:00:41;16.87;;;11.90;;
6306;SDS011;3186;54.062;9.962;2024-02-26T06:03:07;13.80;;;11.87;;
6306;SDS011;3186;54.062;9.962;2024-02-26T06:05:33;12.60;;;11.27;;
6306;SDS011;3186;54.062;9.962;2024-02-26T06:07:58;13.93;;;12.23;;
6306;SDS011;3186;54.062;9.962;2024-02-26T06:10:24;14.63;;;11.70;;
6306;SDS011;3186;54.062;9.962;2024-02-26T06:12:49;15.47;;;12.07;;
6306;SDS011;3186;54.062;9.962;2024-02-26T06:15:15;13.97;;;12.20;;
6306;SDS011;3186;54.062;9.962;2024-02-26T06:17:41;19.00;;;12.27;;
6306;SDS011;3186;54.062;9.962;2024-02-26T06:20:07;14.40;;;11.53;;
6306;SDS011;3186;54.062;9.962;2024-02-26T06:22:36;15.73;;;11.87;;
6306;SDS011;3186;54.062;9.962;2024-02-26T06:25:02;16.47;;;12.63;;
6306;SDS011;3186;54.062;9.962;2024-02-26T06:27:28;13.97;;;12.47;;
6306;SDS011;3186;54.062;9.962;2024-02-26T06:29:53;15.17;;;12.00;;
6306;SDS011;3186;54.062;9.962;2024-02-26T06:32:19;12.77;;;11.47;;
6306;SDS011;3186;54.062;9.962;2024-02-26T06:34:45;15.17;;;12.10;;
6306;SDS011;3186;54.062;9.962;2024-02-26T06:37:10;13.03;;;11.60;;
6306;SDS011;3186;54.062;9.962;2024-02-26T06:39:36;15.30;;;12.60;;
6306;SDS011;3186;54.062;9.962;2024-02-26T06:42:03;17.33;;;11.50;;
6306;SDS011;3186;54.062;9.962;2024-02-26T06:44:28;16.43;;;12.63;;
6306;SDS011;3186;54.062;9.962;2024-02-26T06:47:00;15.50;;;12.13;;
6306;SDS011;3186;54.062;9.962;2024-02-26T06:49:26;14.37;;;12.10;;
6306;SDS011;3186;54.062;9.962;2024-02-26T06:51:52;16.40;;;11.63;;
6306;SDS011;3186;54.062;9.962;2024-02-26T06:54:18;18.60;;;13.30;;
6306;SDS011;3186;54.062;9.962;2024-02-26T06:56:43;18.43;;;13.20;;
6306;SDS011;3186;54.062;9.962;2024-02-26T06:59:09;16.23;;;12.77;;
6306;SDS011;3186;54.062;9.962;2024-02-26T07:01:35;16.13;;;12.50;;
6306;SDS011;3186;54.062;9.962;2024-02-26T07:04:01;16.27;;;12.90;;
6306;SDS011;3186;54.062;9.962;2024-02-26T07:06:27;19.07;;;13.03;;
6306;SDS011;3186;54.062;9.962;2024-02-26T07:08:52;17.30;;;12.83;;
6306;SDS011;3186;54.062;9.962;2024-02-26T07:11:18;16.57;;;13.10;;
6306;SDS011;3186;54.062;9.962;2024-02-26T07:13:45;18.23;;;12.60;;
6306;SDS011;3186;54.062;9.962;2024-02-26T07:16:11;17.83;;;14.23;;
6306;SDS011;3186;54.062;9.962;2024-02-26T07:18:37;15.67;;;13.40;;
6306;SDS011;3186;54.062;9.962;2024-02-26T07:21:04;18.37;;;13.87;;
6306;SDS011;3186;54.062;9.962;2024-02-26T07:23:30;16.43;;;13.90;;
6306;SDS011;3186;54.062;9.962;2024-02-26T07:25:56;19.43;;;13.90;;
6306;SDS011;3186;54.062;9.962;2024-02-26T07:28:22;19.43;;;14.27;;
6306;SDS011;3186;54.062;9.962;2024-02-26T07:30:48;18.37;;;14.00;;
6306;SDS011;3186;54.062;9.962;2024-02-26T07:33:14;17.50;;;14.43;;
6306;SDS011;3186;54.062;9.962;2024-02-26T07:35:40;17.83;;;14.10;;
6306;SDS011;3186;54.062;9.962;2024-02-26T07:38:06;18.17;;;14.43;;
6306;SDS011;3186;54.062;9.962;2024-02-26T07:40:32;21.13;;;15.03;;
6306;SDS011;3186;54.062;9.962;2024-02-26T07:42:58;18.40;;;14.97;;
6306;SDS011;3186;54.062;9.962;2024-02-26T07:45:23;18.17;;;14.40;;
6306;SDS011;3186;54.062;9.962;2024-02-26T07:47:49;18.80;;;14.60;;
6306;SDS011;3186;54.062;9.962;2024-02-26T07:50:16;20.07;;;15.20;;
6306;SDS011;3186;54.062;9.962;2024-02-26T07:52:42;20.47;;;15.57;;
6306;SDS011;3186;54.062;9.962;2024-02-26T07:55:09;23.17;;;15.33;;
6306;SDS011;3186;54.062;9.962;2024-02-26T07:57:34;23.07;;;15.57;;
6306;SDS011;3186;54.062;9.962;2024-02-26T08:00:00;19.63;;;14.73;;
6306;SDS011;3186;54.062;9.962;2024-02-26T08:02:32;24.03;;;15.93;;
6306;SDS011;3186;54.062;9.962;2024-02-26T08:04:59;22.73;;;15.23;;
6306;SDS011;3186;54.062;9.962;2024-02-26T08:07:24;25.23;;;16.43;;
6306;SDS011;3186;54.062;9.962;2024-02-26T08:09:50;22.13;;;15.40;;
6306;SDS011;3186;54.062;9.962;2024-02-26T08:12:16;21.23;;;16.03;;
6306;SDS011;3186;54.062;9.962;2024-02-26T08:14:41;21.53;;;16.03;;
6306;SDS011;3186;54.062;9.962;2024-02-26T08:17:08;24.83;;;17.70;;
6306;SDS011;3186;54.062;9.962;2024-02-26T08:19:34;22.27;;;16.80;;
6306;SDS011;3186;54.062;9.962;2024-02-26T08:22:01;25.57;;;17.93;;
6306;SDS011;3186;54.062;9.962;2024-02-26T08:24:27;24.07;;;16.93;;
6306;SDS011;3186;54.062;9.962;2024-02-26T08:26:53;24.30;;;17.70;;
6306;SDS011;3186;54.062;9.962;2024-02-26T08:29:19;25.33;;;17.93;;
6306;SDS011;3186;54.062;9.962;2024-02-26T08:31:44;24.83;;;17.27;;
6306;SDS011;3186;54.062;9.962;2024-02-26T08:34:10;26.03;;;18.20;;
6306;SDS011;3186;54.062;9.962;2024-02-26T08:36:36;23.17;;;17.07;;
6306;SDS011;3186;54.062;9.962;2024-02-26T08:39:01;28.17;;;18.73;;
6306;SDS011;3186;54.062;9.962;2024-02-26T08:41:27;27.33;;;18.30;;
6306;SDS011;3186;54.062;9.962;2024-02-26T08:43:53;26.53;;;17.23;;
6306;SDS011;3186;54.062;9.962;2024-02-26T08:46:19;26.83;;;20.33;;
6306;SDS011;3186;54.062;9.962;2024-02-26T08:48:45;27.63;;;18.70;;
6306;SDS011;3186;54.062;9.962;2024-02-26T08:51:11;24.40;;;18.23;;
6306;SDS011;3186;54.062;9.962;2024-02-26T08:53:38;23.53;;;17.70;;
6306;SDS011;3186;54.062;9.962;2024-02-26T08:56:03;26.17;;;18.60;;
6306;SDS011;3186;54.062;9.962;2024-02-26T08:58:30;27.47;;;18.27;;
6306;SDS011;3186;54.062;9.962;2024-02-26T09:00:55;27.80;;;18.33;;
6306;SDS011;3186;54.062;9.962;2024-02-26T09:03:21;20.70;;;16.13;;
6306;SDS011;3186;54.062;9.962;2024-02-26T09:05:47;22.13;;;16.23;;
6306;SDS011;3186;54.062;9.962;2024-02-26T09:08:13;19.83;;;15.30;;
6306;SDS011;3186;54.062;9.962;2024-02-26T09:10:39;22.17;;;15.87;;
6306;SDS011;3186;54.062;9.962;2024-02-26T09:13:05;21.77;;;15.07;;
6306;SDS011;3186;54.062;9.962;2024-02-26T09:15:30;24.53;;;16.50;;
6306;SDS011;3186;54.062;9.962;2024-02-26T09:17:56;19.67;;;14.43;;
6306;SDS011;3186;54.062;9.962;2024-02-26T09:20:22;21.60;;;16.20;;
6306;SDS011;3186;54.062;9.962;2024-02-26T09:22:48;18.17;;;14.43;;
6306;SDS011;3186;54.062;9.962;2024-02-26T09:25:15;20.83;;;14.37;;
6306;SDS011;3186;54.062;9.962;2024-02-26T09:27:44;20.97;;;14.60;;
6306;SDS011;3186;54.062;9.962;2024-02-26T09:30:12;19.70;;;14.47;;
6306;SDS011;3186;54.062;9.962;2024-02-26T09:32:38;20.10;;;14.63;;
6306;SDS011;3186;54.062;9.962;2024-02-26T09:35:05;20.50;;;14.80;;
6306;SDS011;3186;54.062;9.962;2024-02-26T09:37:31;20.63;;;14.87;;
6306;SDS011;3186;54.062;9.962;2024-02-26T09:39:57;20.00;;;14.40;;
6306;SDS011;3186;54.062;9.962;2024-02-26T09:42:25;18.47;;;14.00;;
6306;SDS011;3186;54.062;9.962;2024-02-26T09:44:51;22.23;;;15.10;;
6306;SDS011;3186;54.062;9.962;2024-02-26T09:47:23;19.83;;;14.90;;
6306;SDS011;3186;54.062;9.962;2024-02-26T09:49:52;18.93;;;13.47;;
6306;SDS011;3186;54.062;9.962;2024-02-26T09:52:21;15.43;;;13.47;;
6306;SDS011;3186;54.062;9.962;2024-02-26T09:54:48;17.23;;;13.17;;
6306;SDS011;3186;54.062;9.962;2024-02-26T09:57:13;18.43;;;14.20;;
6306;SDS011;3186;54.062;9.962;2024-02-26T09:59:42;19.07;;;14.33;;
6306;SDS011;3186;54.062;9.962;2024-02-26T10:02:12;19.57;;;14.17;;
6306;SDS011;3186;54.062;9.962;2024-02-26T10:04:39;17.50;;;14.00;;
6306;SDS011;3186;54.062;9.962;2024-02-26T10:07:07;15.57;;;13.03;;
6306;SDS011;3186;54.062;9.962;2024-02-26T10:09:35;18.77;;;13.37;;
6306;SDS011;3186;54.062;9.962;2024-02-26T10:12:01;13.97;;;12.20;;
6306;SDS011;3186;54.062;9.962;2024-02-26T10:14:28;16.03;;;12.13;;
6306;SDS011;3186;54.062;9.962;2024-02-26T10:16:54;17.13;;;12.50;;
6306;SDS011;3186;54.062;9.962;2024-02-26T10:19:26;16.37;;;11.70;;
6306;SDS011;3186;54.062;9.962;2024-02-26T10:21:59;16.77;;;12.30;;
6306;SDS011;3186;54.062;9.962;2024-02-26T10:24:26;13.27;;;10.70;;
6306;SDS011;3186;54.062;9.962;2024-02-26T10:26:54;15.80;;;11.47;;
6306;SDS011;3186;54.062;9.962;2024-02-26T10:29:21;14.13;;;10.90;;
6306;SDS011;3186;54.062;9.962;2024-02-26T10:31:48;13.93;;;10.60;;
6306;SDS011;3186;54.062;9.962;2024-02-26T10:34:15;13.17;;;10.77;;
6306;SDS011;3186;54.062;9.962;2024-02-26T10:36:41;15.43;;;10.97;;
6306;SDS011;3186;54.062;9.962;2024-02-26T10:39:07;13.97;;;10.60;;
6306;SDS011;3186;54.062;9.962;2024-02-26T10:41:33;12.83;;;10.67;;
6306;SDS011;3186;54.062;9.962;2024-02-26T10:43:59;15.40;;;11.50;;
6306;SDS011;3186;54.062;9.962;2024-02-26T10:46:25;14.73;;;11.17;;
6306;SDS011;3186;54.062;9.962;2024-02-26T10:48:51;15.73;;;10.60;;
6306;SDS011;3186;54.062;9.962;2024-02-26T10:51:28;14.03;;;10.37;;
6306;SDS011;3186;54.062;9.962;2024-02-26T10:53:55;12.00;;;10.23;;
6306;SDS011;3186;54.062;9.962;2024-02-26T10:56:26;14.80;;;10.37;;
6306;SDS011;3186;54.062;9.962;2024-02-26T10:58:58;14.40;;;10.73;;
6306;SDS011;3186;54.062;9.962;2024-02-26T11:01:24;14.37;;;10.83;;
6306;SDS011;3186;54.062;9.962;2024-02-26T11:03:51;14.87;;;11.43;;
6306;SDS011;3186;54.062;9.962;2024-02-26T11:06:23;14.37;;;11.00;;
6306;SDS011;3186;54.062;9.962;2024-02-26T11:08:51;19.90;;;11.47;;
6306;SDS011;3186;54.062;9.962;2024-02-26T11:11:18;14.87;;;11.63;;
6306;SDS011;3186;54.062;9.962;2024-02-26T11:13:46;16.90;;;12.07;;
6306;SDS011;3186;54.062;9.962;2024-02-26T11:16:19;16.93;;;11.47;;
6306;SDS011;3186;54.062;9.962;2024-02-26T11:18:47;15.53;;;11.90;;
6306;SDS011;3186;54.062;9.962;2024-02-26T11:21:16;15.17;;;12.40;;
6306;SDS011;3186;54.062;9.962;2024-02-26T11:23:53;17.63;;;12.43;;
6306;SDS011;3186;54.062;9.962;2024-02-26T11:26:19;15.77;;;11.77;;
6306;SDS011;3186;54.062;9.962;2024-02-26T11:28:47;16.53;;;12.03;;
6306;SDS011;3186;54.062;9.962;2024-02-26T11:31:14;18.53;;;12.57;;
6306;SDS011;3186;54.062;9.962;2024-02-26T11:33:40;15.97;;;12.07;;
6306;SDS011;3186;54.062;9.962;2024-02-26T11:36:09;16.40;;;12.67;;
6306;SDS011;3186;54.062;9.962;2024-02-26T11:38:36;15.60;;;11.70;;
6306;SDS011;3186;54.062;9.962;2024-02-26T11:41:03;16.70;;;11.73;;
6306;SDS011;3186;54.062;9.962;2024-02-26T11:46:27;16.73;;;12.47;;
6306;SDS011;3186;54.062;9.962;2024-02-26T11:48:59;14.07;;;11.90;;
6306;SDS011;3186;54.062;9.962;2024-02-26T11:51:32;14.77;;;11.47;;
6306;SDS011;3186;54.062;9.962;2024-02-26T11:53:59;15.30;;;12.03;;
6306;SDS011;3186;54.062;9.962;2024-02-26T11:56:25;15.83;;;11.93;;
6306;SDS011;3186;54.062;9.962;2024-02-26T12:01:37;14.80;;;11.87;;
6306;SDS011;3186;54.062;9.962;2024-02-26T12:04:04;16.37;;;10.97;;
6306;SDS011;3186;54.062;9.962;2024-02-26T12:06:31;15.73;;;12.70;;
6306;SDS011;3186;54.062;9.962;2024-02-26T12:09:05;16.87;;;12.27;;
6306;SDS011;3186;54.062;9.962;2024-02-26T12:11:30;13.50;;;11.13;;
6306;SDS011;3186;54.062;9.962;2024-02-26T12:13:56;13.67;;;11.00;;
6306;SDS011;3186;54.062;9.962;2024-02-26T12:16:38;15.10;;;11.20;;
6306;SDS011;3186;54.062;9.962;2024-02-26T12:19:08;13.23;;;11.73;;
6306;SDS011;3186;54.062;9.962;2024-02-26T12:21:35;17.30;;;11.60;;
6306;SDS011;3186;54.062;9.962;2024-02-26T12:24:34;18.40;;;12.73;;
6306;SDS011;3186;54.062;9.962;2024-02-26T12:26:53;15.30;;;11.67;;
6306;SDS011;3186;54.062;9.962;2024-02-26T12:29:19;19.40;;;13.00;;
6306;SDS011;3186;54.062;9.962;2024-02-26T12:31:45;18.63;;;13.17;;
6306;SDS011;3186;54.062;9.962;2024-02-26T12:34:10;19.27;;;12.43;;
6306;SDS011;3186;54.062;9.962;2024-02-26T12:36:37;17.77;;;13.73;;
6306;SDS011;3186;54.062;9.962;2024-02-26T12:39:04;21.03;;;13.73;;
6306;SDS011;3186;54.062;9.962;2024-02-26T12:41:34;17.93;;;13.50;;
6306;SDS011;3186;54.062;9.962;2024-02-26T12:44:00;20.73;;;14.27;;
6306;SDS011;3186;54.062;9.962;2024-02-26T12:46:26;18.20;;;14.00;;
6306;SDS011;3186;54.062;9.962;2024-02-26T12:48:52;21.63;;;14.10;;
6306;SDS011;3186;54.062;9.962;2024-02-26T12:51:21;22.37;;;14.70;;
6306;SDS011;3186;54.062;9.962;2024-02-26T12:53:47;18.23;;;13.80;;
6306;SDS011;3186;54.062;9.962;2024-02-26T12:56:15;21.17;;;13.93;;
6306;SDS011;3186;54.062;9.962;2024-02-26T12:58:41;17.67;;;14.10;;
6306;SDS011;3186;54.062;9.962;2024-02-26T13:01:07;20.43;;;14.37;;
6306;SDS011;3186;54.062;9.962;2024-02-26T13:03:40;19.93;;;13.87;;
6306;SDS011;3186;54.062;9.962;2024-02-26T13:06:06;20.33;;;14.63;;
6306;SDS011;3186;54.062;9.962;2024-02-26T13:08:32;18.37;;;14.80;;
6306;SDS011;3186;54.062;9.962;2024-02-26T13:10:58;18.80;;;15.73;;
6306;SDS011;3186;54.062;9.962;2024-02-26T13:13:25;21.67;;;14.63;;
6306;SDS011;3186;54.062;9.962;2024-02-26T13:16:00;22.23;;;16.70;;
6306;SDS011;3186;54.062;9.962;2024-02-26T13:18:27;23.70;;;16.43;;
6306;SDS011;3186;54.062;9.962;2024-02-26T13:20:53;21.07;;;15.73;;
6306;SDS011;3186;54.062;9.962;2024-02-26T13:23:19;19.20;;;15.43;;
6306;SDS011;3186;54.062;9.962;2024-02-26T13:25:45;20.73;;;15.23;;
6306;SDS011;3186;54.062;9.962;2024-02-26T13:28:15;23.13;;;16.80;;
6306;SDS011;3186;54.062;9.962;2024-02-26T13:30:41;23.70;;;16.57;;
6306;SDS011;3186;54.062;9.962;2024-02-26T13:33:15;20.93;;;15.13;;
6306;SDS011;3186;54.062;9.962;2024-02-26T13:35:40;21.70;;;15.67;;
6306;SDS011;3186;54.062;9.962;2024-02-26T13:38:06;21.43;;;15.70;;
6306;SDS011;3186;54.062;9.962;2024-02-26T13:40:32;21.63;;;16.73;;
6306;SDS011;3186;54.062;9.962;2024-02-26T13:42:58;21.80;;;15.60;;
6306;SDS011;3186;54.062;9.962;2024-02-26T13:45:23;25.60;;;17.43;;
6306;SDS011;3186;54.062;9.962;2024-02-26T13:47:49;23.33;;;16.17;;
6306;SDS011;3186;54.062;9.962;2024-02-26T13:50:14;23.03;;;16.87;;
6306;SDS011;3186;54.062;9.962;2024-02-26T13:52:41;27.60;;;17.23;;
6306;SDS011;3186;54.062;9.962;2024-02-26T13:55:08;24.83;;;16.97;;
6306;SDS011;3186;54.062;9.962;2024-02-26T13:57:34;23.83;;;16.37;;
6306;SDS011;3186;54.062;9.962;2024-02-26T13:59:59;22.27;;;16.37;;
6306;SDS011;3186;54.062;9.962;2024-02-26T14:02:25;22.90;;;16.80;;
6306;SDS011;3186;54.062;9.962;2024-02-26T14:04:50;23.40;;;17.80;;
6306;SDS011;3186;54.062;9.962;2024-02-26T14:07:16;21.10;;;15.87;;
6306;SDS011;3186;54.062;9.962;2024-02-26T14:09:45;19.93;;;15.40;;
6306;SDS011;3186;54.062;9.962;2024-02-26T14:12:10;19.77;;;14.83;;
6306;SDS011;3186;54.062;9.962;2024-02-26T14:14:36;20.83;;;14.87;;
6306;SDS011;3186;54.062;9.962;2024-02-26T14:17:04;17.50;;;13.83;;
6306;SDS011;3186;54.062;9.962;2024-02-26T14:19:30;21.33;;;15.03;;
6306;SDS011;3186;54.062;9.962;2024-02-26T14:21:56;17.27;;;13.37;;
6306;SDS011;3186;54.062;9.962;2024-02-26T14:24:22;23.20;;;15.03;;
6306;SDS011;3186;54.062;9.962;2024-02-26T14:26:47;16.60;;;13.40;;
6306;SDS011;3186;54.062;9.962;2024-02-26T14:29:13;21.20;;;13.53;;
6306;SDS011;3186;54.062;9.962;2024-02-26T14:31:39;21.20;;;13.53;;
6306;SDS011;3186;54.062;9.962;2024-02-26T14:34:05;19.63;;;13.80;;
6306;SDS011;3186;54.062;9.962;2024-02-26T14:36:30;17.90;;;12.73;;
6306;SDS011;3186;54.062;9.962;2024-02-26T14:38:56;16.50;;;12.73;;
6306;SDS011;3186;54.062;9.962;2024-02-26T14:41:22;16.77;;;12.27;;
6306;SDS011;3186;54.062;9.962;2024-02-26T14:43:47;15.53;;;11.90;;
6306;SDS011;3186;54.062;9.962;2024-02-26T14:46:13;16.23;;;12.10;;
6306;SDS011;3186;54.062;9.962;2024-02-26T14:48:39;18.63;;;13.90;;
6306;SDS011;3186;54.062;9.962;2024-02-26T14:51:04;18.50;;;13.00;;